createdAt,value
2022-09-23T00:01:09.048Z,1.40
2022-09-23T00:03:38.564Z,1.30
2022-09-23T00:06:11.201Z,1.23
2022-09-23T00:08:38.896Z,1.30
2022-09-23T00:11:12.954Z,1.23
2022-09-23T00:13:41.611Z,1.40
2022-09-23T00:16:11.439Z,1.70
2022-09-23T00:18:38.403Z,1.60
2022-09-23T00:21:11.016Z,1.58
2022-09-23T00:23:38.819Z,1.65
2022-09-23T00:26:07.795Z,1.50
2022-09-23T00:28:34.858Z,1.40
2022-09-23T00:31:07.129Z,1.40
2022-09-23T00:33:34.056Z,1.50
2022-09-23T00:36:02.039Z,1.30
2022-09-23T00:38:29.014Z,1.40
2022-09-23T00:40:56.721Z,1.50
2022-09-23T00:43:38.557Z,1.50
2022-09-23T00:46:08.474Z,1.38
2022-09-23T00:48:37.252Z,1.40
2022-09-23T00:51:07.698Z,1.30
2022-09-23T00:53:34.814Z,1.50
2022-09-23T00:56:04.616Z,1.10
2022-09-23T00:58:34.368Z,1.83
2022-09-23T01:01:02.546Z,1.40
2022-09-23T01:03:30.708Z,1.40
2022-09-23T01:05:58.196Z,1.23
2022-09-23T01:08:27.077Z,1.42
2022-09-23T01:11:06.251Z,1.60
2022-09-23T01:13:52.252Z,1.35
2022-09-23T01:16:28.100Z,1.50
2022-09-23T01:19:17.231Z,1.20
2022-09-23T01:22:05.203Z,1.23
2022-09-23T01:25:09.147Z,1.60
2022-09-23T01:27:54.581Z,1.30
2022-09-23T01:30:45.179Z,1.50
2022-09-23T01:33:33.683Z,1.85
2022-09-23T01:36:24.063Z,1.38
2022-09-23T01:39:15.246Z,1.27
2022-09-23T01:42:05.826Z,1.38
2022-09-23T01:44:36.369Z,1.33
2022-09-23T01:47:11.097Z,1.45
2022-09-23T01:50:37.203Z,1.73
2022-09-23T01:53:14.805Z,1.30
2022-09-23T01:55:48.736Z,1.25
2022-09-23T01:58:22.037Z,1.65
2022-09-23T02:03:28.057Z,1.65
2022-09-23T02:06:10.095Z,1.20
2022-09-23T02:09:08.050Z,1.33
2022-09-23T02:11:36.899Z,1.38
2022-09-23T02:14:10.967Z,1.10
2022-09-23T02:16:43.833Z,1.50
2022-09-23T02:19:27.241Z,1.55
2022-09-23T02:22:08.212Z,1.50
2022-09-23T02:24:38.334Z,1.30
2022-09-23T02:27:24.178Z,1.48
2022-09-23T02:29:54.040Z,1.20
2022-09-23T02:32:32.413Z,1.20
2022-09-23T02:35:15.867Z,1.70
2022-09-23T02:40:24.557Z,1.40
2022-09-23T02:43:19.963Z,1.13
2022-09-23T02:45:47.475Z,1.20
2022-09-23T02:48:20.394Z,1.30
2022-09-23T02:50:47.938Z,1.25
2022-09-23T02:53:18.411Z,1.38
2022-09-23T02:55:45.084Z,1.25
2022-09-23T02:58:14.130Z,1.10
2022-09-23T03:00:47.122Z,1.15
2022-09-23T03:03:34.844Z,1.20
2022-09-23T03:06:09.063Z,1.20
2022-09-23T03:08:51.034Z,1.33
2022-09-23T03:11:18.509Z,1.70
2022-09-23T03:14:00.239Z,1.08
2022-09-23T03:16:53.879Z,1.38
2022-09-23T03:19:27.060Z,1.38
2022-09-23T03:24:36.832Z,1.20
2022-09-23T03:27:13.971Z,1.20
2022-09-23T03:29:47.967Z,1.27
2022-09-23T03:32:17.746Z,1.30
2022-09-23T03:34:48.573Z,1.20
2022-09-23T03:37:27.184Z,1.30
2022-09-23T03:40:22.021Z,1.17
2022-09-23T03:42:51.502Z,1.10
2022-09-23T03:45:23.932Z,1.23
2022-09-23T03:47:50.664Z,1.20
2022-09-23T03:50:21.368Z,1.45
2022-09-23T03:52:49.760Z,1.25
2022-09-23T03:55:17.976Z,1.10
2022-09-23T03:57:45.350Z,1.20
2022-09-23T04:00:13.006Z,1.20
2022-09-23T04:02:40.490Z,1.08
2022-09-23T04:05:09.119Z,1.20
2022-09-23T04:07:35.807Z,1.20
2022-09-23T04:10:02.477Z,1.25
2022-09-23T04:12:29.123Z,1.27
2022-09-23T04:14:55.869Z,1.45
2022-09-23T04:17:22.563Z,1.30
2022-09-23T04:19:49.185Z,1.10
2022-09-23T04:22:16.024Z,1.20
2022-09-23T04:24:42.727Z,1.10
2022-09-23T04:27:09.614Z,1.70
2022-09-23T04:29:36.226Z,1.35
2022-09-23T04:32:02.959Z,1.23
2022-09-23T04:34:29.602Z,1.17
2022-09-23T04:36:56.375Z,1.13
2022-09-23T04:39:23.052Z,1.17
2022-09-23T04:41:49.779Z,1.17
2022-09-23T04:44:16.505Z,1.15
2022-09-23T04:46:46.870Z,0.98
2022-09-23T04:49:14.537Z,1.20
2022-09-23T04:51:43.999Z,1.42
2022-09-23T04:54:12.266Z,1.10
2022-09-23T04:56:39.938Z,1.40
2022-09-23T04:59:08.054Z,1.27
2022-09-23T05:01:36.583Z,1.20
2022-09-23T05:04:07.307Z,1.30
2022-09-23T05:06:35.213Z,1.08
2022-09-23T05:09:04.388Z,1.20
2022-09-23T05:11:31.686Z,1.20
2022-09-23T05:13:58.744Z,1.20
2022-09-23T05:16:26.218Z,1.10
2022-09-23T05:18:53.353Z,1.23
2022-09-23T05:21:22.608Z,0.90
2022-09-23T05:23:55.280Z,1.10
2022-09-23T05:26:28.189Z,1.05
2022-09-23T05:28:55.548Z,1.20
2022-09-23T05:31:24.894Z,1.10
2022-09-23T05:34:02.891Z,1.10
2022-09-23T05:36:36.948Z,1.13
2022-09-23T05:39:05.103Z,1.30
2022-09-23T05:41:31.736Z,1.20
2022-09-23T05:43:59.831Z,1.55
2022-09-23T05:46:29.080Z,1.30
2022-09-23T05:49:08.158Z,1.30
2022-09-23T05:51:35.882Z,1.38
2022-09-23T05:54:04.578Z,2.75
2022-09-23T05:56:32.806Z,1.20
2022-09-23T05:59:01.593Z,1.23
2022-09-23T06:01:34.491Z,1.13
2022-09-23T06:04:03.855Z,1.45
2022-09-23T06:06:33.038Z,1.15
2022-09-23T06:09:00.813Z,1.40
2022-09-23T06:11:30.934Z,1.17
2022-09-23T06:14:02.729Z,1.10
2022-09-23T06:16:32.640Z,1.58
2022-09-23T06:19:06.911Z,1.50
2022-09-23T06:21:36.777Z,1.25
2022-09-23T06:24:04.055Z,1.60
2022-09-23T06:26:34.159Z,1.10
2022-09-23T06:29:02.888Z,1.30
2022-09-23T06:31:33.254Z,1.20
2022-09-23T06:34:09.534Z,1.30
2022-09-23T06:36:43.042Z,1.30
2022-09-23T06:39:14.052Z,1.30
2022-09-23T06:41:40.821Z,1.30
2022-09-23T06:44:07.756Z,1.40
2022-09-23T06:46:35.740Z,1.20
2022-09-23T06:49:04.017Z,1.15
2022-09-23T06:51:30.929Z,1.52
2022-09-23T06:53:57.708Z,1.80
2022-09-23T06:56:25.067Z,1.35
2022-09-23T06:58:53.483Z,1.38
2022-09-23T07:01:20.502Z,1.20
2022-09-23T07:03:48.640Z,1.10
2022-09-23T07:06:16.241Z,1.10
2022-09-23T07:08:45.111Z,1.67
2022-09-23T07:11:13.612Z,1.00
2022-09-23T07:13:42.806Z,1.17
2022-09-23T07:16:11.825Z,1.55
2022-09-23T07:18:40.132Z,1.52
2022-09-23T07:21:19.102Z,1.10
2022-09-23T07:23:52.739Z,0.82
2022-09-23T07:26:21.505Z,1.13
2022-09-23T07:28:52.983Z,1.10
2022-09-23T07:31:34.434Z,1.20
2022-09-23T07:34:08.537Z,1.10
2022-09-23T07:36:37.757Z,1.00
2022-09-23T07:39:04.801Z,1.00
2022-09-23T07:41:33.447Z,1.00
2022-09-23T07:44:01.333Z,1.00
2022-09-23T07:46:30.885Z,1.13
2022-09-23T07:48:58.170Z,0.80
2022-09-23T07:51:37.581Z,0.80
2022-09-23T07:54:10.715Z,0.80
2022-09-23T07:56:40.139Z,0.70
2022-09-23T07:59:09.952Z,1.10
2022-09-23T08:13:02.437Z,0.88
2022-09-23T08:26:20.948Z,1.00
2022-09-23T08:42:40.666Z,1.00
2022-09-23T08:45:14.576Z,0.90
2022-09-23T08:47:52.720Z,1.00
2022-09-23T08:50:22.727Z,0.90
2022-09-23T08:52:57.995Z,0.80
2022-09-23T08:55:38.918Z,1.17
2022-09-23T08:58:35.365Z,0.80
2022-09-23T09:01:14.957Z,0.90
2022-09-23T09:04:06.545Z,0.90
2022-09-23T09:06:53.439Z,0.70
2022-09-23T09:15:12.846Z,1.00
2022-09-23T09:18:06.991Z,1.08
2022-09-23T09:44:19.408Z,0.95
2022-09-23T09:47:06.568Z,0.98
2022-09-23T09:49:59.157Z,1.00
2022-09-23T09:52:29.930Z,0.90
2022-09-23T09:55:17.873Z,0.90
2022-09-23T09:58:05.846Z,1.15
2022-09-23T10:00:43.221Z,1.08
2022-09-23T10:03:13.174Z,0.90
2022-09-23T10:05:46.432Z,0.77
2022-09-23T10:08:29.187Z,1.02
2022-09-23T10:10:59.122Z,0.90
2022-09-23T10:13:28.160Z,0.82
2022-09-23T10:15:56.383Z,1.08
2022-09-23T10:44:23.889Z,1.27
2022-09-23T12:16:22.755Z,0.63
2022-09-23T12:28:15.983Z,0.90
2022-09-23T12:44:41.981Z,0.70
2022-09-23T12:55:36.800Z,0.70
2022-09-23T13:01:09.893Z,1.55
2022-09-23T13:03:55.651Z,1.40
2022-09-23T13:06:40.990Z,1.30
2022-09-23T13:09:17.092Z,1.23
2022-09-23T13:11:48.133Z,1.48
2022-09-23T13:14:26.755Z,0.90
2022-09-23T13:16:55.494Z,1.17
2022-09-23T13:19:28.500Z,1.10
2022-09-23T13:22:09.274Z,0.82
2022-09-23T13:24:39.695Z,1.10
2022-09-23T13:27:33.542Z,1.00
2022-09-23T13:30:27.055Z,0.88
2022-09-23T13:35:50.980Z,0.98
2022-09-23T13:38:21.166Z,0.98
2022-09-23T13:40:49.353Z,0.77
2022-09-23T13:43:27.676Z,1.30
2022-09-23T13:45:55.477Z,0.70
2022-09-23T13:48:25.839Z,0.95
2022-09-23T13:50:56.430Z,0.70
2022-09-23T13:53:23.076Z,0.90
2022-09-23T13:56:02.196Z,0.82
2022-09-23T13:58:31.680Z,0.60
2022-09-23T14:00:58.849Z,0.70
2022-09-23T14:03:37.122Z,0.85
2022-09-23T14:06:15.539Z,0.60
2022-09-23T14:08:46.206Z,0.60
2022-09-23T14:11:40.378Z,1.00
2022-09-23T14:14:07.980Z,0.77
2022-09-23T14:16:40.940Z,0.95
2022-09-23T14:19:17.722Z,0.90
2022-09-23T14:21:49.259Z,0.80
2022-09-23T14:24:18.235Z,0.80
2022-09-23T14:27:06.960Z,0.80
2022-09-23T14:29:36.489Z,0.85
2022-09-23T14:32:11.577Z,0.95
2022-09-23T14:35:02.912Z,1.00
2022-09-23T14:37:48.356Z,1.20
2022-09-23T14:40:19.132Z,1.02
2022-09-23T14:42:52.872Z,0.82
2022-09-23T14:45:25.819Z,0.98
2022-09-23T14:48:32.985Z,1.02
2022-09-23T14:51:10.814Z,0.68
2022-09-23T14:53:43.202Z,0.98
2022-09-23T14:56:25.267Z,0.80
2022-09-23T14:58:56.327Z,1.02
2022-09-23T15:01:28.395Z,0.70
2022-09-23T15:03:56.892Z,0.80
2022-09-23T15:09:08.774Z,0.90
2022-09-23T15:11:36.289Z,1.15
2022-09-23T15:14:33.152Z,0.88
2022-09-23T15:16:55.387Z,0.70
2022-09-23T15:19:24.335Z,0.70
2022-09-23T15:21:54.650Z,0.90
2022-09-23T15:24:34.765Z,1.40
2022-09-23T15:27:02.443Z,2.20
2022-09-23T15:29:30.095Z,2.35
2022-09-23T15:31:57.596Z,1.83
2022-09-23T15:34:27.441Z,1.10
2022-09-23T15:36:54.998Z,1.63
2022-09-23T15:39:36.039Z,1.73
2022-09-23T15:47:25.335Z,1.83
2022-09-23T15:49:52.827Z,1.60
2022-09-23T15:52:24.018Z,1.00
2022-09-23T15:54:51.686Z,1.30
2022-09-23T15:57:19.674Z,1.17
2022-09-23T15:59:46.799Z,1.40
2022-09-23T16:02:23.375Z,0.90
2022-09-23T16:04:51.724Z,0.90
2022-09-23T16:07:20.009Z,0.70
2022-09-23T16:09:46.870Z,0.80
2022-09-23T16:12:13.948Z,0.95
2022-09-23T16:14:40.721Z,0.80
2022-09-23T16:17:09.644Z,1.00
2022-09-23T16:19:36.400Z,1.00
2022-09-23T16:22:04.884Z,0.90
2022-09-23T16:24:31.713Z,0.68
2022-09-23T16:27:01.092Z,1.05
2022-09-23T16:29:28.046Z,1.20
2022-09-23T16:31:55.818Z,0.85
2022-09-23T16:34:22.678Z,0.60
2022-09-23T16:36:49.664Z,0.90
2022-09-23T16:39:16.455Z,0.90
2022-09-23T16:41:44.021Z,0.90
2022-09-23T16:44:12.684Z,0.93
2022-09-23T16:46:43.057Z,0.95
2022-09-23T16:49:12.338Z,0.88
2022-09-23T16:51:40.240Z,1.17
2022-09-23T16:54:11.129Z,1.00
2022-09-23T16:56:45.313Z,0.90
2022-09-23T16:59:13.988Z,1.00
2022-09-23T17:01:59.107Z,1.25
2022-09-23T17:04:26.075Z,1.02
2022-09-23T17:06:53.637Z,0.90
2022-09-23T17:09:23.417Z,1.10
2022-09-23T17:12:04.334Z,0.80
2022-09-23T17:14:34.956Z,1.00
2022-09-23T17:17:01.802Z,1.10
2022-09-23T17:19:28.918Z,1.30
2022-09-23T17:21:55.711Z,1.10
2022-09-23T17:24:22.915Z,1.30
2022-09-23T17:26:52.980Z,1.13
2022-09-23T17:29:20.771Z,1.00
2022-09-23T17:31:48.605Z,1.20
2022-09-23T17:34:17.060Z,1.10
2022-09-23T17:36:45.851Z,1.25
2022-09-23T17:39:12.850Z,1.25
2022-09-23T17:41:49.157Z,1.30
2022-09-23T17:44:18.234Z,1.20
2022-09-23T17:46:45.486Z,1.20
2022-09-23T17:49:12.367Z,1.20
2022-09-23T17:51:39.108Z,1.00
2022-09-23T17:54:06.580Z,1.23
2022-09-23T17:56:34.181Z,1.17
2022-09-23T17:59:02.179Z,1.60
2022-09-23T18:01:29.741Z,1.30
2022-09-23T18:04:00.492Z,1.40
2022-09-23T18:06:31.758Z,1.58
2022-09-23T18:09:01.793Z,1.27
2022-09-23T18:11:30.758Z,1.42
2022-09-23T18:14:00.867Z,1.35
2022-09-23T18:16:39.658Z,1.65
2022-09-23T18:19:08.635Z,1.35
2022-09-23T18:21:41.551Z,1.38
2022-09-23T18:24:31.320Z,1.50
2022-09-23T18:27:00.010Z,1.50
2022-09-23T18:29:27.184Z,1.98
2022-09-23T18:31:54.069Z,1.42
2022-09-23T18:34:20.922Z,1.60
2022-09-23T18:36:47.692Z,1.60
2022-09-23T18:39:14.834Z,2.28
2022-09-23T18:41:41.554Z,1.63
2022-09-23T18:44:09.016Z,1.25
2022-09-23T18:46:35.903Z,1.75
2022-09-23T18:49:21.237Z,1.42
2022-09-23T18:51:54.730Z,1.67
2022-09-23T18:54:23.174Z,3.15
2022-09-23T18:56:52.674Z,3.08
2022-09-23T18:59:23.966Z,3.10
2022-09-23T19:01:51.576Z,2.92
2022-09-23T19:04:20.668Z,2.60
2022-09-23T19:06:47.770Z,2.50
2022-09-23T19:09:16.703Z,1.90
2022-09-23T19:11:44.451Z,2.22
2022-09-23T19:14:12.004Z,2.17
2022-09-23T19:16:40.340Z,2.05
2022-09-23T19:19:07.329Z,2.05
2022-09-23T19:21:34.730Z,2.38
2022-09-23T19:24:04.420Z,1.95
2022-09-23T19:26:39.621Z,2.20
2022-09-23T19:29:08.504Z,2.10
2022-09-23T19:31:40.347Z,1.98
2022-09-23T19:34:15.751Z,1.38
2022-09-23T19:36:45.446Z,1.60
2022-09-23T19:39:18.059Z,2.03
2022-09-23T19:41:45.858Z,1.58
2022-09-23T19:44:12.939Z,2.05
2022-09-23T19:46:42.879Z,1.90
2022-09-23T19:49:11.136Z,1.55
2022-09-23T19:51:38.978Z,1.73
2022-09-23T19:54:07.403Z,1.70
2022-09-23T19:56:34.796Z,1.73
2022-09-23T19:59:03.172Z,1.85
2022-09-23T20:01:32.248Z,1.70
2022-09-23T20:03:59.515Z,1.45
2022-09-23T20:06:30.422Z,1.98
2022-09-23T20:08:59.584Z,1.42
2022-09-23T20:11:28.653Z,1.52
2022-09-23T20:14:01.976Z,1.40
2022-09-23T20:16:32.423Z,1.38
2022-09-23T20:19:00.946Z,1.42
2022-09-23T20:21:29.373Z,1.77
2022-09-23T20:23:57.216Z,1.38
2022-09-23T20:26:42.751Z,1.80
2022-09-23T20:29:11.005Z,1.63
2022-09-23T20:31:38.086Z,1.45
2022-09-23T20:34:07.191Z,1.25
2022-09-23T20:36:35.448Z,1.48
2022-09-23T20:39:06.046Z,1.33
2022-09-23T20:41:36.792Z,1.55
2022-09-23T20:44:06.386Z,1.85
2022-09-23T20:46:33.300Z,2.03
2022-09-23T20:49:01.557Z,2.50
2022-09-23T20:51:28.194Z,1.75
2022-09-23T20:53:55.118Z,1.90
2022-09-23T20:56:22.028Z,2.00
2022-09-23T20:58:50.468Z,2.00
2022-09-23T21:01:18.294Z,1.75
2022-09-23T21:03:47.673Z,2.33
2022-09-23T21:06:17.586Z,2.08
2022-09-23T21:08:45.129Z,1.70
2022-09-23T21:11:16.792Z,1.70
2022-09-23T21:13:51.214Z,1.60
2022-09-23T21:16:21.550Z,1.63
2022-09-23T21:18:50.561Z,1.55
2022-09-23T21:21:19.794Z,1.40
2022-09-23T21:23:47.832Z,1.50
2022-09-23T21:26:19.462Z,1.63
2022-09-23T21:28:51.434Z,1.70
2022-09-23T21:31:25.536Z,1.40
2022-09-23T21:33:59.349Z,1.50
2022-09-23T21:36:28.196Z,1.40
2022-09-23T21:38:56.144Z,1.80
2022-09-23T21:41:23.774Z,1.50
2022-09-23T21:43:50.962Z,1.60
2022-09-23T21:46:22.923Z,1.33
2022-09-23T21:48:53.394Z,1.80
2022-09-23T21:51:25.675Z,2.00
2022-09-23T21:53:55.004Z,1.70
2022-09-23T21:56:27.375Z,1.48
2022-09-23T21:58:55.423Z,1.53
2022-09-23T22:01:23.661Z,1.65
2022-09-23T22:03:57.886Z,1.40
2022-09-23T22:06:27.730Z,1.60
2022-09-23T22:08:59.874Z,1.60
2022-09-23T22:11:52.972Z,1.75
2022-09-23T22:14:23.643Z,1.42
2022-09-23T22:16:50.777Z,1.48
2022-09-23T22:19:17.459Z,1.83
2022-09-23T22:21:45.775Z,1.85
2022-09-23T22:24:13.290Z,1.40
2022-09-23T22:26:42.428Z,1.70
2022-09-23T22:29:33.036Z,1.40
2022-09-23T22:32:19.805Z,1.40
2022-09-23T22:34:50.451Z,1.70
2022-09-23T22:37:25.788Z,1.60
2022-09-23T22:39:53.225Z,1.75
2022-09-23T22:42:22.638Z,1.55
2022-09-23T22:44:50.141Z,1.80
2022-09-23T22:47:18.147Z,1.92
2022-09-23T22:49:46.267Z,2.00
2022-09-23T22:52:14.022Z,1.90
2022-09-23T22:54:40.732Z,1.50
2022-09-23T22:57:08.323Z,1.50
2022-09-23T22:59:37.392Z,1.70
2022-09-23T23:02:05.263Z,1.60
2022-09-23T23:04:32.233Z,1.50
2022-09-23T23:06:59.009Z,1.52
2022-09-23T23:09:25.855Z,1.35
2022-09-23T23:11:52.850Z,1.70
2022-09-23T23:14:19.820Z,1.30
2022-09-23T23:16:46.888Z,1.17
2022-09-23T23:19:17.131Z,1.42
2022-09-23T23:21:45.658Z,2.03
2022-09-23T23:24:22.094Z,1.42
2022-09-23T23:26:50.075Z,1.15
2022-09-23T23:29:19.079Z,1.10
2022-09-23T23:31:46.123Z,1.40
2022-09-23T23:34:19.029Z,1.10
2022-09-23T23:36:46.809Z,1.20
2022-09-23T23:39:14.052Z,1.75
2022-09-23T23:41:41.753Z,1.30
2022-09-23T23:44:09.067Z,1.60
2022-09-23T23:46:37.399Z,1.33
2022-09-23T23:49:04.875Z,1.60
2022-09-23T23:51:31.791Z,1.90
2022-09-23T23:53:59.895Z,1.45
2022-09-23T23:56:27.587Z,1.40
2022-09-23T23:58:59.907Z,1.58
